createdAt,value
2019-02-15T00:01:27.080Z,7.13
2019-02-15T00:04:02.966Z,9.30
2019-02-15T00:06:36.114Z,7.03
2019-02-15T00:09:27.142Z,7.17
2019-02-15T00:12:04.246Z,7.60
2019-02-15T00:14:55.577Z,8.37
2019-02-15T00:17:48.069Z,7.10
2019-02-15T00:20:33.358Z,7.40
2019-02-15T00:23:09.977Z,7.57
2019-02-15T00:25:42.492Z,7.37
2019-02-15T00:28:35.498Z,7.13
2019-02-15T00:31:14.068Z,7.60
2019-02-15T00:33:49.605Z,10.73
2019-02-15T00:36:36.962Z,7.70
2019-02-15T00:39:19.027Z,7.03
2019-02-15T00:41:54.819Z,7.20
2019-02-15T00:44:38.340Z,7.37
2019-02-15T00:47:27.032Z,7.70
2019-02-15T00:50:19.465Z,7.10
2019-02-15T00:53:13.727Z,6.87
2019-02-15T00:56:07.682Z,7.30
2019-02-15T00:58:57.653Z,9.73
2019-02-15T01:01:52.662Z,7.30
2019-02-15T01:04:58.787Z,10.43
2019-02-15T01:07:54.126Z,7.03
2019-02-15T01:10:49.427Z,7.27
2019-02-15T01:13:30.776Z,7.00
2019-02-15T01:16:13.354Z,7.47
2019-02-15T01:18:50.299Z,7.30
2019-02-15T01:21:23.558Z,7.57
2019-02-15T01:23:59.001Z,7.30
2019-02-15T01:26:49.854Z,7.73
2019-02-15T01:29:49.373Z,6.97
2019-02-15T01:32:41.290Z,7.57
2019-02-15T01:35:35.426Z,7.50
2019-02-15T01:38:48.064Z,7.47
2019-02-15T01:41:40.648Z,7.23
2019-02-15T01:44:36.306Z,8.70
2019-02-15T01:47:13.697Z,7.50
2019-02-15T01:49:45.965Z,7.80
2019-02-15T01:52:21.345Z,9.70
2019-02-15T01:55:18.049Z,7.73
2019-02-15T01:57:53.519Z,7.83
2019-02-15T02:00:28.380Z,6.90
2019-02-15T02:03:13.023Z,7.47
2019-02-15T02:05:46.023Z,7.20
2019-02-15T02:08:23.299Z,7.87
2019-02-15T02:10:56.756Z,7.47
2019-02-15T02:13:29.097Z,7.30
2019-02-15T02:16:07.503Z,7.30
2019-02-15T02:18:42.658Z,6.70
2019-02-15T02:21:15.163Z,7.90
2019-02-15T02:23:46.683Z,8.00
2019-02-15T02:26:21.163Z,7.70
2019-02-15T02:28:58.093Z,7.63
2019-02-15T02:31:41.164Z,7.50
2019-02-15T02:34:15.680Z,7.57
2019-02-15T02:37:02.420Z,7.30
2019-02-15T02:39:36.921Z,8.67
2019-02-15T02:42:12.846Z,8.23
2019-02-15T02:44:46.375Z,7.90
2019-02-15T02:47:37.919Z,7.63
2019-02-15T02:50:12.522Z,8.30
2019-02-15T02:52:48.673Z,8.03
2019-02-15T02:55:21.383Z,7.80
2019-02-15T02:57:57.309Z,7.97
2019-02-15T03:00:36.242Z,7.70
2019-02-15T03:03:07.622Z,9.50
2019-02-15T03:05:44.761Z,7.37
2019-02-15T03:08:18.154Z,8.60
2019-02-15T03:10:52.965Z,7.47
2019-02-15T03:13:24.014Z,7.73
2019-02-15T03:15:59.976Z,10.70
2019-02-15T03:18:32.084Z,7.80
2019-02-15T03:21:05.426Z,7.70
2019-02-15T03:23:44.276Z,7.27
2019-02-15T03:26:18.071Z,7.33
2019-02-15T03:28:50.804Z,9.67
2019-02-15T03:31:27.372Z,7.07
2019-02-15T03:34:05.338Z,7.93
2019-02-15T03:36:56.334Z,9.20
2019-02-15T03:39:47.764Z,7.50
2019-02-15T03:42:21.248Z,7.13
2019-02-15T03:44:54.067Z,7.67
2019-02-15T03:47:27.644Z,7.37
2019-02-15T03:50:01.318Z,9.50
2019-02-15T03:52:35.446Z,7.63
2019-02-15T03:55:08.158Z,7.37
2019-02-15T03:57:41.273Z,7.33
2019-02-15T04:00:16.038Z,7.53
2019-02-15T04:03:00.667Z,8.33
2019-02-15T04:05:52.846Z,7.27
2019-02-15T04:08:26.117Z,9.47
2019-02-15T04:10:59.894Z,7.43
2019-02-15T04:13:37.142Z,9.43
2019-02-15T04:16:09.852Z,7.50
2019-02-15T04:18:44.159Z,7.30
2019-02-15T04:21:15.415Z,7.23
2019-02-15T04:23:47.015Z,7.17
2019-02-15T04:26:26.997Z,6.53
2019-02-15T04:28:59.555Z,7.60
2019-02-15T04:31:33.485Z,7.27
2019-02-15T04:34:06.388Z,6.53
2019-02-15T04:36:41.381Z,7.77
2019-02-15T04:39:15.154Z,7.60
2019-02-15T04:41:54.674Z,7.93
2019-02-15T04:45:51.724Z,7.97
2019-02-15T04:47:13.797Z,10.50
2019-02-15T04:49:46.243Z,6.50
2019-02-15T04:52:21.168Z,7.20
2019-02-15T04:54:52.453Z,7.30
2019-02-15T04:57:33.478Z,8.77
2019-02-15T05:00:17.451Z,8.17
2019-02-15T05:02:53.279Z,6.97
2019-02-15T05:06:09.690Z,7.70
2019-02-15T05:09:02.334Z,8.37
2019-02-15T05:12:00.714Z,7.60
2019-02-15T05:14:38.151Z,7.37
2019-02-15T05:17:09.040Z,7.03
2019-02-15T05:22:39.951Z,7.80
2019-02-15T05:25:10.952Z,7.73
2019-02-15T05:27:54.520Z,7.53
2019-02-15T05:30:33.007Z,7.43
2019-02-15T05:33:05.753Z,8.00
2019-02-15T05:35:38.339Z,8.47
2019-02-15T05:38:15.111Z,8.47
2019-02-15T05:41:07.582Z,8.20
2019-02-15T05:43:48.205Z,7.83
2019-02-15T05:46:23.501Z,7.60
2019-02-15T05:48:55.116Z,7.67
2019-02-15T05:51:30.468Z,8.47
2019-02-15T05:54:10.148Z,7.73
2019-02-15T05:56:44.446Z,8.87
2019-02-15T05:59:31.862Z,7.97
2019-02-15T06:02:06.373Z,8.53
2019-02-15T06:04:37.398Z,8.50
2019-02-15T06:07:10.299Z,8.23
2019-02-15T06:09:47.469Z,8.37
2019-02-15T06:12:21.080Z,7.77
2019-02-15T06:14:53.714Z,8.60
2019-02-15T06:17:37.339Z,8.30
2019-02-15T06:20:10.674Z,8.60
2019-02-15T06:22:53.238Z,8.00
2019-02-15T06:25:45.218Z,8.10
2019-02-15T06:28:21.806Z,7.33
2019-02-15T06:30:57.133Z,7.83
2019-02-15T06:33:33.981Z,8.60
2019-02-15T06:36:10.972Z,7.87
2019-02-15T06:38:46.341Z,8.20
2019-02-15T06:41:25.981Z,8.00
2019-02-15T06:44:00.029Z,8.87
2019-02-15T06:46:34.863Z,8.07
2019-02-15T06:49:07.773Z,8.00
2019-02-15T06:51:41.966Z,8.13
2019-02-15T06:54:13.131Z,7.93
2019-02-15T06:56:50.788Z,8.07
2019-02-15T06:59:40.861Z,7.17
2019-02-15T07:02:38.348Z,7.47
2019-02-15T07:05:17.251Z,6.97
2019-02-15T07:07:53.105Z,9.83
2019-02-15T07:10:28.221Z,7.40
2019-02-15T07:13:04.080Z,7.13
2019-02-15T07:15:34.713Z,7.23
2019-02-15T07:18:11.699Z,9.90
2019-02-15T07:20:42.737Z,7.73
2019-02-15T07:23:16.786Z,7.33
2019-02-15T07:25:47.959Z,7.67
2019-02-15T07:28:24.049Z,7.13
2019-02-15T07:31:07.846Z,6.87
2019-02-15T07:33:30.457Z,6.97
2019-02-15T07:36:08.712Z,7.47
2019-02-15T07:38:42.284Z,10.00
2019-02-15T07:41:16.572Z,7.37
2019-02-15T07:43:52.953Z,7.17
2019-02-15T07:46:29.266Z,7.63
2019-02-15T07:49:00.690Z,7.57
2019-02-15T07:51:33.478Z,7.93
2019-02-15T07:54:08.295Z,8.07
2019-02-15T07:56:39.339Z,7.10
2019-02-15T07:59:10.620Z,7.70
2019-02-15T08:01:42.470Z,7.17
2019-02-15T08:04:22.412Z,7.63
2019-02-15T08:06:57.804Z,7.70
2019-02-15T08:09:31.254Z,10.27
2019-02-15T08:12:10.323Z,6.90
2019-02-15T08:14:47.353Z,7.20
2019-02-15T08:17:22.787Z,7.60
2019-02-15T08:20:01.101Z,7.80
2019-02-15T08:22:32.219Z,7.80
2019-02-15T08:25:07.619Z,10.43
2019-02-15T08:27:43.774Z,7.90
2019-02-15T08:30:29.642Z,8.63
2019-02-15T08:33:01.636Z,7.93
2019-02-15T08:35:59.271Z,7.47
2019-02-15T08:38:49.151Z,8.60
2019-02-15T08:41:20.713Z,10.77
2019-02-15T08:43:57.670Z,7.30
2019-02-15T08:50:05.066Z,10.53
2019-02-15T08:52:41.302Z,7.63
2019-02-15T08:55:14.009Z,7.27
2019-02-15T08:57:49.641Z,8.03
2019-02-15T09:00:50.546Z,7.47
2019-02-15T09:03:39.481Z,7.03
2019-02-15T09:06:42.836Z,6.37
2019-02-15T09:09:22.126Z,6.07
2019-02-15T09:12:08.218Z,7.70
2019-02-15T09:15:04.732Z,22.10
2019-02-15T09:18:01.359Z,8.87
2019-02-15T09:20:49.032Z,13.43
2019-02-15T09:23:30.648Z,9.17
2019-02-15T09:26:28.852Z,9.43
2019-02-15T09:29:13.838Z,8.40
2019-02-15T09:32:07.554Z,8.50
2019-02-15T09:35:07.185Z,8.20
2019-02-15T09:37:58.207Z,9.50
2019-02-15T09:40:42.355Z,7.90
2019-02-15T09:43:34.343Z,9.10
2019-02-15T09:46:08.797Z,14.00
2019-02-15T09:48:47.537Z,8.10
2019-02-15T09:51:42.950Z,7.47
2019-02-15T09:54:24.394Z,7.50
2019-02-15T10:00:08.067Z,9.33
2019-02-15T10:03:03.797Z,11.10
2019-02-15T10:05:53.390Z,8.53
2019-02-15T10:08:29.255Z,10.07
2019-02-15T10:11:07.794Z,11.37
2019-02-15T10:13:39.290Z,7.17
2019-02-15T10:16:13.401Z,6.70
2019-02-15T10:18:49.992Z,7.07
2019-02-15T10:21:30.025Z,9.97
2019-02-15T10:24:19.830Z,7.17
2019-02-15T10:26:55.753Z,6.80
2019-02-15T10:29:43.769Z,6.77
2019-02-15T10:32:17.411Z,8.20
2019-02-15T10:34:57.978Z,6.03
2019-02-15T10:37:33.370Z,7.57
2019-02-15T10:40:18.215Z,6.60
2019-02-15T10:43:01.511Z,6.20
2019-02-15T10:45:43.379Z,5.73
2019-02-15T10:48:32.576Z,5.93
2019-02-15T10:51:17.750Z,5.60
2019-02-15T10:53:46.516Z,5.90
2019-02-15T10:56:41.299Z,5.67
2019-02-15T10:59:28.521Z,5.80
2019-02-15T11:02:26.483Z,6.00
2019-02-15T11:05:22.176Z,5.30
2019-02-15T11:08:16.237Z,5.87
2019-02-15T11:15:18.557Z,7.20
2019-02-15T11:18:17.839Z,5.80
2019-02-15T11:20:50.438Z,6.40
2019-02-15T11:23:30.925Z,6.43
2019-02-15T11:26:13.680Z,6.90
2019-02-15T11:29:44.314Z,5.83
2019-02-15T11:32:45.088Z,6.50
2019-02-15T11:35:32.219Z,5.33
2019-02-15T11:38:24.038Z,6.13
2019-02-15T11:43:51.418Z,8.87
2019-02-15T11:48:03.711Z,6.43
2019-02-15T11:49:08.365Z,6.50
2019-02-15T11:51:48.090Z,5.50
2019-02-15T11:54:43.825Z,5.70
2019-02-15T11:57:41.776Z,6.00
2019-02-15T12:00:50.148Z,5.20
2019-02-15T12:03:24.398Z,5.47
2019-02-15T12:06:03.943Z,5.50
2019-02-15T12:08:39.339Z,5.60
2019-02-15T12:11:16.408Z,6.27
2019-02-15T12:13:50.717Z,4.90
2019-02-15T12:16:24.839Z,5.67
2019-02-15T12:19:19.052Z,5.87
2019-02-15T12:21:57.937Z,5.70
2019-02-15T12:25:02.857Z,5.03
2019-02-15T12:27:46.661Z,5.20
2019-02-15T12:30:48.021Z,5.30
2019-02-15T12:33:36.606Z,5.10
2019-02-15T12:37:08.877Z,9.03
2019-02-15T12:39:45.066Z,4.93
2019-02-15T12:42:20.194Z,4.17
2019-02-15T12:45:02.195Z,4.23
2019-02-15T12:47:57.072Z,3.73
2019-02-15T12:55:10.476Z,12.47
2019-02-15T12:57:52.659Z,4.73
2019-02-15T13:00:44.766Z,3.57
2019-02-15T13:03:29.844Z,3.47
2019-02-15T13:06:36.343Z,3.60
2019-02-15T13:09:51.964Z,3.17
2019-02-15T13:12:59.305Z,2.80
2019-02-15T13:15:35.864Z,3.10
2019-02-15T13:18:49.385Z,2.80
2019-02-15T13:21:38.567Z,3.10
2019-02-15T13:24:09.742Z,2.87
2019-02-15T13:26:44.284Z,2.67
2019-02-15T13:29:18.605Z,2.50
2019-02-15T13:32:55.247Z,3.17
2019-02-15T13:35:46.656Z,2.90
2019-02-15T13:38:14.365Z,3.50
2019-02-15T13:40:49.343Z,7.83
2019-02-15T13:43:33.934Z,4.73
2019-02-15T13:46:20.453Z,2.90
2019-02-15T13:48:54.934Z,4.10
2019-02-15T13:51:27.725Z,3.03
2019-02-15T13:54:02.869Z,1.90
2019-02-15T13:56:33.968Z,2.10
2019-02-15T13:59:06.025Z,2.50
2019-02-15T14:01:39.326Z,2.53
2019-02-15T14:04:13.324Z,2.30
2019-02-15T14:06:48.553Z,2.10
2019-02-15T14:09:20.382Z,2.17
2019-02-15T14:11:54.085Z,1.80
2019-02-15T14:14:38.106Z,1.90
2019-02-15T14:17:14.875Z,1.83
2019-02-15T14:19:48.052Z,1.60
2019-02-15T14:22:25.743Z,1.60
2019-02-15T14:25:41.816Z,1.90
2019-02-15T14:28:35.021Z,2.03
2019-02-15T14:31:08.203Z,2.40
2019-02-15T14:33:41.743Z,2.73
2019-02-15T14:36:16.595Z,2.57
2019-02-15T14:38:49.939Z,3.60
2019-02-15T14:41:31.575Z,3.00
2019-02-15T14:47:25.048Z,2.80
2019-02-15T14:49:58.159Z,2.50
2019-02-15T14:52:34.445Z,2.20
2019-02-15T14:55:25.646Z,2.90
2019-02-15T14:57:50.922Z,2.53
2019-02-15T15:01:18.011Z,2.20
2019-02-15T15:03:01.996Z,1.63
2019-02-15T15:05:41.403Z,7.23
2019-02-15T15:08:11.366Z,2.67
2019-02-15T15:10:57.864Z,10.07
2019-02-15T15:13:36.778Z,4.20
2019-02-15T15:16:50.630Z,3.67
2019-02-15T15:22:27.098Z,3.73
2019-02-15T15:24:58.343Z,2.27
2019-02-15T15:27:34.342Z,2.30
2019-02-15T15:30:17.206Z,2.40
2019-02-15T15:32:54.248Z,1.77
2019-02-15T15:35:26.724Z,1.77
2019-02-15T15:38:08.632Z,2.57
2019-02-15T15:40:46.976Z,5.20
2019-02-15T15:43:20.972Z,4.20
2019-02-15T15:45:53.434Z,3.43
2019-02-15T15:48:26.482Z,3.67
2019-02-15T15:50:58.325Z,3.63
2019-02-15T15:53:29.567Z,3.60
2019-02-15T15:56:00.771Z,3.40
2019-02-15T15:58:44.910Z,3.00
2019-02-15T16:01:18.410Z,2.90
2019-02-15T16:03:57.964Z,2.70
2019-02-15T16:06:31.067Z,2.63
2019-02-15T16:09:16.055Z,3.57
2019-02-15T16:11:50.020Z,10.03
2019-02-15T16:14:41.539Z,3.87
2019-02-15T16:17:33.452Z,3.47
2019-02-15T16:20:12.048Z,3.67
2019-02-15T16:22:46.654Z,2.83
2019-02-15T16:25:31.603Z,3.50
2019-02-15T16:28:08.610Z,3.70
2019-02-15T16:31:01.670Z,3.93
2019-02-15T16:33:35.697Z,3.77
2019-02-15T16:36:25.859Z,4.00
2019-02-15T16:39:14.198Z,4.50
2019-02-15T16:42:21.384Z,4.00
2019-02-15T16:45:14.928Z,5.33
2019-02-15T16:47:55.486Z,5.60
2019-02-15T16:50:57.455Z,5.37
2019-02-15T16:53:45.756Z,5.60
2019-02-15T16:56:17.919Z,6.60
2019-02-15T16:58:55.234Z,6.17
2019-02-15T17:01:26.494Z,6.70
2019-02-15T17:03:58.601Z,7.80
2019-02-15T17:06:38.558Z,8.97
2019-02-15T17:09:21.004Z,9.07
2019-02-15T17:11:52.537Z,9.87
2019-02-15T17:14:32.499Z,11.17
2019-02-15T17:17:06.209Z,10.53
2019-02-15T17:19:43.980Z,12.13
2019-02-15T17:22:23.345Z,11.67
2019-02-15T17:24:55.377Z,10.27
2019-02-15T17:27:36.743Z,10.03
2019-02-15T17:30:17.639Z,9.80
2019-02-15T17:36:18.540Z,8.10
2019-02-15T17:39:00.702Z,7.80
2019-02-15T17:41:48.902Z,8.60
2019-02-15T17:44:31.522Z,8.27
2019-02-15T17:47:11.861Z,8.60
2019-02-15T17:49:52.464Z,8.17
2019-02-15T17:52:37.203Z,8.40
2019-02-15T17:55:13.845Z,8.93
2019-02-15T17:58:20.927Z,9.20
2019-02-15T18:01:05.021Z,7.60
2019-02-15T18:04:00.571Z,7.87
2019-02-15T18:07:02.676Z,8.50
2019-02-15T18:09:28.158Z,8.73
2019-02-15T18:12:16.390Z,9.47
2019-02-15T18:15:28.646Z,10.73
2019-02-15T18:21:35.979Z,12.27
2019-02-15T18:24:10.543Z,13.37
2019-02-15T18:27:10.214Z,13.30
2019-02-15T18:30:02.922Z,15.87
2019-02-15T18:32:38.434Z,14.87
2019-02-15T18:35:16.732Z,14.13
2019-02-15T18:37:48.941Z,14.43
2019-02-15T18:40:22.292Z,15.57
2019-02-15T18:43:14.935Z,16.53
2019-02-15T18:46:02.855Z,17.03
2019-02-15T18:54:50.345Z,17.70
2019-02-15T18:57:47.625Z,16.87
2019-02-15T19:00:48.120Z,17.10
2019-02-15T19:03:29.749Z,17.77
2019-02-15T19:07:00.475Z,17.67
2019-02-15T19:09:33.569Z,17.97
2019-02-15T19:12:23.389Z,17.13
2019-02-15T19:15:00.499Z,19.97
2019-02-15T19:17:43.033Z,18.57
2019-02-15T19:20:40.487Z,18.10
2019-02-15T19:23:16.438Z,17.30
2019-02-15T19:26:34.147Z,19.77
2019-02-15T19:31:42.759Z,23.23
2019-02-15T19:34:21.579Z,21.97
2019-02-15T19:36:57.421Z,24.63
2019-02-15T19:42:55.531Z,25.23
2019-02-15T19:45:54.108Z,27.90
2019-02-15T19:51:35.936Z,29.13
2019-02-15T19:54:31.221Z,27.73
2019-02-15T19:57:10.308Z,24.10
2019-02-15T20:00:44.839Z,23.83
2019-02-15T20:03:40.240Z,22.33
2019-02-15T20:05:57.413Z,22.93
2019-02-15T20:08:30.601Z,22.37
2019-02-15T20:11:20.808Z,22.13
2019-02-15T20:14:09.123Z,21.40
2019-02-15T20:16:42.572Z,21.23
2019-02-15T20:19:20.798Z,19.80
2019-02-15T20:21:57.645Z,20.63
2019-02-15T20:24:39.104Z,19.17
2019-02-15T20:27:10.389Z,17.70
2019-02-15T20:29:49.473Z,16.90
2019-02-15T20:33:21.358Z,19.00
2019-02-15T20:35:27.735Z,18.17
2019-02-15T20:38:05.784Z,18.53
2019-02-15T20:40:52.052Z,19.37
2019-02-15T20:43:42.417Z,18.73
2019-02-15T20:46:25.543Z,18.93
2019-02-15T20:49:04.605Z,20.53
2019-02-15T20:51:34.280Z,20.80
2019-02-15T20:54:11.491Z,20.17
2019-02-15T20:57:08.088Z,20.43
2019-02-15T20:59:45.624Z,20.60
2019-02-15T21:02:26.998Z,21.00
2019-02-15T21:05:12.379Z,20.43
2019-02-15T21:10:55.235Z,20.37
2019-02-15T21:13:25.377Z,18.67
2019-02-15T21:16:07.406Z,17.17
2019-02-15T21:18:49.300Z,18.03
2019-02-15T21:21:19.775Z,15.27
2019-02-15T21:24:26.064Z,15.13
2019-02-15T21:26:55.583Z,14.47
2019-02-15T21:29:42.180Z,15.80
2019-02-15T21:32:34.361Z,13.00
2019-02-15T21:35:14.306Z,11.50
2019-02-15T21:38:07.022Z,11.17
2019-02-15T21:40:43.292Z,10.67
2019-02-15T21:43:29.544Z,10.63
2019-02-15T21:49:38.480Z,10.33
2019-02-15T21:52:27.717Z,10.13
2019-02-15T21:55:09.467Z,11.00
2019-02-15T21:58:35.524Z,11.70
2019-02-15T22:00:31.770Z,11.03
2019-02-15T22:03:08.715Z,10.07
2019-02-15T22:05:50.171Z,10.83
2019-02-15T22:08:49.405Z,10.53
2019-02-15T22:11:46.461Z,10.50
2019-02-15T22:14:51.111Z,9.70
2019-02-15T22:18:03.062Z,10.83
2019-02-15T22:20:26.262Z,9.50
2019-02-15T22:26:35.936Z,9.60
2019-02-15T22:29:08.418Z,9.43
2019-02-15T22:31:43.863Z,9.90
2019-02-15T22:34:17.384Z,9.50
2019-02-15T22:36:57.522Z,9.27
2019-02-15T22:39:29.239Z,9.37
2019-02-15T22:42:04.918Z,9.83
2019-02-15T22:44:40.978Z,10.13
2019-02-15T22:47:12.085Z,9.87
2019-02-15T22:49:50.697Z,9.57
2019-02-15T22:52:25.066Z,10.00
2019-02-15T22:55:02.582Z,9.90
2019-02-15T22:57:42.711Z,9.50
2019-02-15T23:00:25.128Z,10.43
2019-02-15T23:02:58.745Z,9.60
2019-02-15T23:06:14.268Z,9.40
2019-02-15T23:08:54.814Z,9.20
2019-02-15T23:11:29.705Z,10.80
2019-02-15T23:14:04.711Z,10.63
2019-02-15T23:16:51.312Z,11.57
2019-02-15T23:20:06.579Z,10.60
2019-02-15T23:24:39.283Z,11.17
2019-02-15T23:26:18.601Z,10.40
2019-02-15T23:28:54.961Z,10.60
2019-02-15T23:31:49.866Z,9.83
2019-02-15T23:34:38.693Z,9.63
2019-02-15T23:37:14.983Z,9.30
2019-02-15T23:40:24.792Z,9.37
2019-02-15T23:42:58.522Z,9.17
2019-02-15T23:45:31.103Z,10.33
2019-02-15T23:48:05.959Z,9.67
2019-02-15T23:50:37.478Z,8.93
2019-02-15T23:53:10.796Z,9.50
2019-02-15T23:55:44.384Z,8.77
2019-02-15T23:58:22.955Z,10.57
